Time;durP1;ratioP1;P1;durP2;ratioP2;P2;SDS_P1;SDS_P2;PMS_P1;PMS_P2;Temp;Humidity;BMP_temperature;BMP_pressure;BME280_temperature;BME280_humidity;BME280_pressure;Samples;Min_cycle;Max_cycle;Signal;HPM_P1;HPM_P2
2023/11/11 00:06:11;;;;;;;9.43;6.38;;;7.20;99.90;;;;;;6013027;23;20039;31
2023/11/11 00:08:37;;;;;;;9.25;5.47;;;7.20;99.90;;;;;;4876344;29;20491;-65
2023/11/11 00:11:05;;;;;;;8.30;4.88;;;7.20;99.90;;;;;;4894020;29;20135;-65
2023/11/11 00:13:32;;;;;;;10.00;5.78;;;7.10;99.90;;;;;;4894392;29;20132;-65
2023/11/11 00:15:58;;;;;;;9.23;5.75;;;7.20;99.90;;;;;;4895433;29;20052;-65
2023/11/11 00:18:25;;;;;;;6.72;5.45;;;7.30;99.90;;;;;;4894085;29;20045;-65
2023/11/11 00:20:51;;;;;;;8.88;5.72;;;7.30;99.90;;;;;;4894590;29;20059;-66
2023/11/11 00:23:16;;;;;;;15.63;6.35;;;7.20;99.90;;;;;;4893520;29;20048;-65
2023/11/11 00:25:43;;;;;;;7.68;6.65;;;7.30;99.90;;;;;;4894983;29;20044;-66
2023/11/11 00:28:10;;;;;;;6.65;5.05;;;7.30;99.90;;;;;;4895264;29;20056;-66
2023/11/11 00:30:36;;;;;;;6.88;5.28;;;7.30;99.90;;;;;;4893229;29;20395;-65
2023/11/11 00:33:02;;;;;;;7.65;5.13;;;7.30;99.90;;;;;;4878463;29;20092;-65
2023/11/11 00:35:27;;;;;;;9.68;5.65;;;7.30;99.90;;;;;;4892030;29;20092;-66
2023/11/11 00:37:54;;;;;;;11.80;6.68;;;7.30;99.90;;;;;;4893815;29;20076;-66
2023/11/11 00:40:21;;;;;;;7.28;5.63;;;7.30;99.90;;;;;;4892648;29;20052;-66
2023/11/11 00:42:47;;;;;;;10.07;5.32;;;7.30;99.90;;;;;;4886586;29;20125;-66
2023/11/11 00:45:15;;;;;;;11.38;6.07;;;7.30;99.90;;;;;;4888030;29;20045;-66
2023/11/11 00:47:41;;;;;;;11.60;5.57;;;7.30;99.90;;;;;;4893787;29;20152;-66
2023/11/11 00:50:09;;;;;;;11.93;6.07;;;7.30;99.90;;;;;;4877037;29;20546;-66
2023/11/11 00:52:36;;;;;;;8.73;4.90;;;7.30;99.90;;;;;;4893057;29;20686;-66
2023/11/11 01:14:56;;;;;;;8.27;4.65;;;7.10;99.90;;;;;;6043142;23;21211;31
2023/11/11 01:17:23;;;;;;;4.50;3.00;;;7.10;99.90;;;;;;4823601;29;20088;-66
2023/11/11 01:19:49;;;;;;;4.85;3.47;;;7.10;99.90;;;;;;4849158;29;20050;-65
2023/11/11 01:22:19;;;;;;;5.97;3.63;;;7.10;99.90;;;;;;4832518;29;20054;-66
2023/11/11 01:24:45;;;;;;;2.80;2.42;;;7.10;99.90;;;;;;4819952;29;20072;-66
2023/11/11 01:27:12;;;;;;;4.68;2.45;;;7.10;99.90;;;;;;4839806;29;20061;-66
2023/11/11 01:29:42;;;;;;;3.40;2.42;;;7.10;99.90;;;;;;4840111;29;20041;-66
2023/11/11 01:32:08;;;;;;;2.22;2.00;;;7.10;99.90;;;;;;4840352;29;20046;-66
2023/11/11 01:34:34;;;;;;;2.30;2.10;;;7.00;99.90;;;;;;4854173;29;20054;-66
2023/11/11 01:37:05;;;;;;;3.05;2.35;;;7.10;99.90;;;;;;4824212;29;20053;-65
2023/11/11 01:39:31;;;;;;;3.25;2.38;;;7.00;99.90;;;;;;4854151;29;20046;-66
2023/11/11 01:41:58;;;;;;;3.53;2.22;;;7.10;99.90;;;;;;4840141;29;20050;-66
2023/11/11 01:44:23;;;;;;;5.07;2.80;;;7.00;99.90;;;;;;4840255;29;20198;-66
2023/11/11 01:46:50;;;;;;;3.95;2.58;;;7.10;99.90;;;;;;4841136;29;20576;-65
2023/11/11 01:49:17;;;;;;;8.30;2.65;;;7.10;99.90;;;;;;4839299;29;20077;-65
2023/11/11 01:51:44;;;;;;;3.88;2.72;;;7.00;99.90;;;;;;4841487;29;20103;-65
2023/11/11 01:54:11;;;;;;;3.25;2.45;;;7.10;99.90;;;;;;4808691;29;20041;-65
2023/11/11 02:01:50;;;;;;;3.55;2.30;;;7.00;99.90;;;;;;4931893;23;20470;-66
2023/11/11 02:04:19;;;;;;;2.65;2.22;;;7.00;99.90;;;;;;4878307;29;20075;-65
2023/11/11 02:06:49;;;;;;;2.28;2.15;;;7.00;99.90;;;;;;4895195;29;20399;-66
2023/11/11 02:09:18;;;;;;;1.98;1.80;;;7.00;99.90;;;;;;4896943;29;20047;-66
2023/11/11 02:11:47;;;;;;;2.25;1.75;;;6.90;99.90;;;;;;4862730;29;20048;-66
2023/11/11 02:14:14;;;;;;;4.78;1.75;;;6.90;99.90;;;;;;4878937;29;20051;-65
2023/11/11 02:16:40;;;;;;;1.73;1.40;;;6.90;99.90;;;;;;4877238;29;20507;-65
2023/11/11 02:19:06;;;;;;;1.60;1.50;;;6.90;99.90;;;;;;4864053;29;20109;-66
2023/11/11 02:21:32;;;;;;;1.60;1.50;;;6.90;99.90;;;;;;4895567;29;20048;-66
2023/11/11 02:24:03;;;;;;;4.57;1.45;;;6.90;99.90;;;;;;4863588;29;20482;-66
2023/11/11 02:26:29;;;;;;;3.60;1.75;;;6.80;99.90;;;;;;4895909;29;20056;-66
2023/11/11 02:28:55;;;;;;;2.15;1.80;;;6.90;99.90;;;;;;4877992;29;20144;-66
2023/11/11 02:31:22;;;;;;;5.85;1.40;;;6.90;99.90;;;;;;4878782;29;20051;-66
2023/11/11 02:33:48;;;;;;;3.00;1.30;;;7.00;99.90;;;;;;4876616;29;20063;-65
2023/11/11 02:36:14;;;;;;;2.42;0.75;;;6.90;99.90;;;;;;4894665;29;20052;-66
2023/11/11 02:38:40;;;;;;;2.88;1.20;;;7.00;99.90;;;;;;4878004;29;20056;-66
2023/11/11 02:41:07;;;;;;;5.13;1.10;;;7.00;99.90;;;;;;4895738;29;20049;-66
2023/11/11 02:43:33;;;;;;;5.53;1.10;;;7.00;99.90;;;;;;4877522;29;20510;-66
2023/11/11 02:45:59;;;;;;;1.85;0.95;;;7.00;99.90;;;;;;4876803;29;20047;-67
2023/11/11 02:48:25;;;;;;;0.50;0.50;;;7.00;99.90;;;;;;4877997;29;20036;-66
2023/11/11 02:50:51;;;;;;;0.90;0.90;;;7.00;99.90;;;;;;4876208;29;20056;-66
2023/11/11 02:53:17;;;;;;;0.90;0.90;;;7.00;99.90;;;;;;4877906;29;20048;-66
2023/11/11 02:55:43;;;;;;;2.08;0.80;;;7.00;99.90;;;;;;4876623;29;20495;-66
2023/11/11 02:58:09;;;;;;;1.65;0.93;;;7.00;99.90;;;;;;4877896;29;20127;-67
2023/11/11 03:00:39;;;;;;;1.92;0.90;;;7.00;99.90;;;;;;4894099;29;20096;-66
2023/11/11 03:03:06;;;;;;;1.00;0.90;;;7.00;99.90;;;;;;4887875;29;20056;-66
2023/11/11 03:05:33;;;;;;;1.70;0.60;;;6.90;99.90;;;;;;4879504;29;20077;-66
2023/11/11 03:07:59;;;;;;;1.42;0.60;;;6.90;99.90;;;;;;4861113;29;20056;-66
2023/11/11 03:10:25;;;;;;;7.22;0.80;;;6.90;99.90;;;;;;4864369;29;20052;-66
2023/11/11 03:12:50;;;;;;;2.20;0.60;;;6.90;99.90;;;;;;4861077;29;20612;-66
2023/11/11 03:15:16;;;;;;;8.43;0.70;;;6.90;99.90;;;;;;4876096;29;20060;-66
2023/11/11 03:17:43;;;;;;;3.85;0.55;;;6.90;99.90;;;;;;4876378;29;20063;-66
2023/11/11 03:20:09;;;;;;;1.30;0.40;;;6.90;99.90;;;;;;4877244;29;20481;-66
2023/11/11 03:22:35;;;;;;;2.47;0.25;;;6.90;99.90;;;;;;4878103;29;20147;-66
2023/11/11 03:25:00;;;;;;;1.20;0.35;;;6.90;99.90;;;;;;4875975;29;20560;-66
2023/11/11 03:27:26;;;;;;;1.20;0.32;;;6.90;99.90;;;;;;4861696;29;20053;-66
2023/11/11 03:29:52;;;;;;;0.65;0.35;;;6.90;99.90;;;;;;4874785;29;20053;-66
2023/11/11 03:32:18;;;;;;;1.85;0.25;;;6.90;99.90;;;;;;4894637;29;20052;-66
2023/11/11 03:34:44;;;;;;;0.80;0.22;;;6.90;99.90;;;;;;4860088;29;20052;-66
2023/11/11 03:37:09;;;;;;;1.67;0.30;;;6.90;99.90;;;;;;4876758;29;20077;-66
2023/11/11 03:39:36;;;;;;;1.50;0.30;;;6.90;99.90;;;;;;4894406;29;20060;-66
2023/11/11 03:42:02;;;;;;;2.63;0.50;;;6.90;99.90;;;;;;4893083;29;20040;-66
2023/11/11 03:44:28;;;;;;;0.38;0.38;;;6.90;99.90;;;;;;4877494;29;20056;-66
2023/11/11 03:46:55;;;;;;;2.22;0.22;;;6.90;99.90;;;;;;4859424;29;20060;-66
2023/11/11 03:49:21;;;;;;;2.90;0.20;;;6.80;99.90;;;;;;4893512;29;20131;-66
2023/11/11 03:51:46;;;;;;;0.77;0.52;;;6.90;99.90;;;;;;4875055;29;20140;-66
2023/11/11 03:54:12;;;;;;;0.55;0.30;;;6.80;99.90;;;;;;4876846;29;20048;-66
2023/11/11 03:56:38;;;;;;;0.22;0.22;;;6.80;99.90;;;;;;4893140;29;20052;-66
2023/11/11 03:59:05;;;;;;;0.20;0.20;;;6.70;99.90;;;;;;4892127;29;20135;-66
2023/11/11 04:01:34;;;;;;;2.67;0.25;;;6.70;99.90;;;;;;4894289;29;20078;-66
2023/11/11 04:04:01;;;;;;;0.55;0.50;;;6.60;99.90;;;;;;4875933;29;20057;-66
2023/11/11 04:06:26;;;;;;;4.68;0.30;;;6.60;99.90;;;;;;4877012;29;20060;-66
2023/11/11 04:08:52;;;;;;;0.88;0.30;;;6.60;99.90;;;;;;4874488;29;20088;-66
2023/11/11 04:11:18;;;;;;;3.75;0.30;;;6.60;99.90;;;;;;4876524;29;20131;-66
2023/11/11 04:13:45;;;;;;;0.75;0.10;;;6.60;99.90;;;;;;4876211;29;20049;-66
2023/11/11 04:16:13;;;;;;;3.22;0.30;;;6.60;99.90;;;;;;4892956;29;20510;-66
2023/11/11 04:18:39;;;;;;;2.70;0.40;;;6.60;99.90;;;;;;4894575;29;20057;-66
2023/11/11 04:21:05;;;;;;;1.30;0.20;;;6.50;99.90;;;;;;4891882;29;20060;-66
2023/11/11 04:23:31;;;;;;;0.13;0.13;;;6.50;99.90;;;;;;4878108;29;20049;-66
2023/11/11 04:25:58;;;;;;;1.48;0.10;;;6.50;99.90;;;;;;4874764;29;20517;-66
2023/11/11 04:28:25;;;;;;;0.55;0.13;;;6.50;99.90;;;;;;4881563;29;20418;-66
2023/11/11 04:30:51;;;;;;;0.98;0.10;;;6.50;99.90;;;;;;4874830;29;20067;-66
2023/11/11 04:33:19;;;;;;;0.35;0.10;;;6.60;99.90;;;;;;4877222;29;20052;-66
2023/11/11 04:35:45;;;;;;;2.28;0.10;;;6.60;99.90;;;;;;4877205;29;20055;-66
2023/11/11 04:38:11;;;;;;;1.23;0.25;;;6.60;99.90;;;;;;4875945;29;20052;-66
2023/11/11 04:40:38;;;;;;;5.03;0.35;;;6.60;99.90;;;;;;4893358;29;20403;-66
2023/11/11 04:43:03;;;;;;;2.83;0.47;;;6.60;99.90;;;;;;4875271;29;20119;-66
2023/11/11 04:45:30;;;;;;;5.68;0.52;;;6.70;99.90;;;;;;4876533;29;20475;-66
2023/11/11 04:47:57;;;;;;;1.42;0.20;;;6.70;99.90;;;;;;4891052;29;20063;-66
2023/11/11 04:50:22;;;;;;;0.82;0.20;;;6.80;99.90;;;;;;4876666;29;20056;-66
2023/11/11 04:52:48;;;;;;;0.20;0.20;;;6.70;99.90;;;;;;4892693;29;20521;-66
2023/11/11 04:55:14;;;;;;;1.40;0.20;;;6.70;99.90;;;;;;4875757;29;20530;-66
2023/11/11 04:57:40;;;;;;;1.20;0.28;;;6.80;99.90;;;;;;4876346;29;20053;-66
2023/11/11 05:00:09;;;;;;;2.33;0.28;;;6.80;99.90;;;;;;4892829;29;20373;-66
2023/11/11 05:02:39;;;;;;;0.85;0.03;;;6.80;99.90;;;;;;4876393;29;20100;-66
2023/11/11 05:05:05;;;;;;;4.07;0.03;;;6.90;99.90;;;;;;4858429;29;20437;-66
2023/11/11 05:07:32;;;;;;;2.38;0.22;;;6.90;99.90;;;;;;4876656;29;20517;-66
2023/11/11 05:09:59;;;;;;;0.60;0.17;;;6.90;99.90;;;;;;4891843;29;20120;-66
2023/11/11 05:12:25;;;;;;;3.78;0.35;;;7.00;99.90;;;;;;4893340;29;20052;-66
2023/11/11 05:14:54;;;;;;;2.90;0.38;;;7.00;99.90;;;;;;4876308;29;20098;-66
2023/11/11 05:17:25;;;;;;;0.85;0.28;;;6.90;99.90;;;;;;4875110;29;20049;-66
2023/11/11 05:19:53;;;;;;;0.45;0.00;;;7.00;99.90;;;;;;4876211;29;20049;-66
2023/11/11 05:22:19;;;;;;;2.28;0.20;;;6.90;99.90;;;;;;4891767;29;20087;-66
2023/11/11 05:24:45;;;;;;;2.42;0.30;;;6.90;99.90;;;;;;4876658;29;20049;-66
2023/11/11 05:27:12;;;;;;;0.10;0.10;;;6.90;99.90;;;;;;4873925;29;20052;-66
2023/11/11 05:29:38;;;;;;;0.00;0.00;;;6.90;99.90;;;;;;4875802;29;20087;-66
2023/11/11 05:32:04;;;;;;;0.28;0.25;;;6.90;99.90;;;;;;4892506;29;20044;-66
2023/11/11 05:34:29;;;;;;;0.13;0.10;;;6.90;99.90;;;;;;4891845;29;20044;-67
2023/11/11 05:36:55;;;;;;;2.25;0.17;;;6.90;99.90;;;;;;4875359;29;20056;-66
2023/11/11 05:39:22;;;;;;;1.60;0.20;;;6.90;99.90;;;;;;4874359;29;20132;-66
2023/11/11 05:41:50;;;;;;;0.17;0.17;;;6.90;99.90;;;;;;4875467;29;20139;-66
2023/11/11 05:44:17;;;;;;;0.43;0.17;;;6.80;99.90;;;;;;4874245;29;20377;-66
2023/11/11 05:46:43;;;;;;;0.32;0.05;;;6.90;99.90;;;;;;4892361;29;20067;-66
2023/11/11 05:49:08;;;;;;;0.98;0.10;;;6.80;99.90;;;;;;4874390;29;20048;-66
2023/11/11 05:51:35;;;;;;;0.77;0.05;;;6.80;99.90;;;;;;4874500;29;20056;-66
2023/11/11 05:54:02;;;;;;;0.10;0.10;;;6.80;99.90;;;;;;4875443;29;20612;-66
2023/11/11 05:56:27;;;;;;;2.13;0.30;;;6.80;99.90;;;;;;4873733;29;20160;-66
2023/11/11 05:58:58;;;;;;;1.25;0.10;;;6.80;99.90;;;;;;4892139;29;20520;-66
2023/11/11 06:01:26;;;;;;;1.35;0.13;;;6.90;99.90;;;;;;4890869;29;20539;-66
2023/11/11 06:03:52;;;;;;;2.28;0.40;;;6.90;99.90;;;;;;4892662;29;20049;-66
2023/11/11 06:06:19;;;;;;;0.10;0.10;;;6.90;99.90;;;;;;4859268;29;20414;-66
2023/11/11 06:13:56;;;;;;;1.02;0.10;;;6.90;99.90;;;;;;5005507;23;20521;-66
2023/11/11 06:16:22;;;;;;;0.17;0.08;;;6.90;99.90;;;;;;4913483;29;20067;-66
2023/11/11 06:18:48;;;;;;;0.00;0.00;;;6.90;99.90;;;;;;4896562;29;20087;-66
2023/11/11 06:21:14;;;;;;;0.03;0.03;;;6.90;99.90;;;;;;4897715;29;20048;-66
2023/11/11 06:23:39;;;;;;;1.13;0.10;;;6.90;99.90;;;;;;4896360;29;20123;-65
2023/11/11 06:26:07;;;;;;;6.88;0.10;;;6.90;99.90;;;;;;4915812;29;20059;-66
2023/11/11 06:28:33;;;;;;;0.85;0.20;;;6.90;99.90;;;;;;4896608;29;20103;-66
2023/11/11 06:30:58;;;;;;;4.85;0.20;;;6.90;99.90;;;;;;4896402;29;20133;-66
2023/11/11 06:33:24;;;;;;;0.90;0.32;;;6.90;99.90;;;;;;4895931;29;20583;-66
2023/11/11 06:35:50;;;;;;;0.10;0.00;;;6.90;99.90;;;;;;4898991;29;20527;-66
2023/11/11 06:38:16;;;;;;;0.22;0.20;;;6.90;99.90;;;;;;4897288;29;20036;-66
2023/11/11 06:40:43;;;;;;;0.00;0.00;;;6.90;99.90;;;;;;4896389;29;20074;-66
2023/11/11 06:43:09;;;;;;;0.10;0.10;;;6.90;99.90;;;;;;4888486;29;20044;-66
2023/11/11 06:45:36;;;;;;;0.00;0.00;;;6.90;99.90;;;;;;4896973;29;20056;-66
2023/11/11 06:48:03;;;;;;;0.00;0.00;;;6.90;99.90;;;;;;4898631;29;20108;-66
2023/11/11 06:50:30;;;;;;;2.25;0.20;;;6.80;99.90;;;;;;4881234;29;20056;-65
2023/11/11 06:52:55;;;;;;;0.52;0.20;;;6.80;99.90;;;;;;4881931;29;20123;-66
2023/11/11 06:55:21;;;;;;;0.32;0.10;;;6.80;99.90;;;;;;4912238;29;20036;-66
2023/11/11 06:57:47;;;;;;;0.60;0.20;;;6.80;99.90;;;;;;4889628;29;20048;-67
2023/11/11 07:00:18;;;;;;;0.20;0.00;;;6.80;99.90;;;;;;4879105;29;20206;-84
2023/11/11 07:02:44;;;;;;;0.00;0.00;;;6.70;99.90;;;;;;4894419;29;20048;-74
2023/11/11 07:05:10;;;;;;;0.70;0.00;;;6.70;99.90;;;;;;4862186;29;20049;-76
2023/11/11 07:07:40;;;;;;;0.00;0.00;;;6.60;99.90;;;;;;4895398;29;20108;-82
2023/11/11 07:10:07;;;;;;;0.88;0.32;;;6.70;99.90;;;;;;4894842;29;20056;-66
2023/11/11 07:12:33;;;;;;;0.75;0.10;;;6.70;99.90;;;;;;4890470;29;20134;-66
2023/11/11 07:15:00;;;;;;;0.80;0.10;;;6.70;99.90;;;;;;4896457;29;20388;-70
2023/11/11 07:17:26;;;;;;;0.05;0.05;;;6.70;99.90;;;;;;4895884;29;20139;-83
2023/11/11 07:19:51;;;;;;;0.08;0.08;;;6.70;99.90;;;;;;4874422;29;20615;-67
2023/11/11 07:22:18;;;;;;;0.00;0.00;;;6.70;99.90;;;;;;4905311;29;20055;-84
2023/11/11 07:24:47;;;;;;;1.75;0.00;;;6.70;99.90;;;;;;4894837;29;20048;-67
2023/11/11 07:27:15;;;;;;;2.05;0.13;;;6.70;99.90;;;;;;4895963;29;20539;-66
2023/11/11 07:29:41;;;;;;;0.00;0.00;;;6.70;99.90;;;;;;4893709;29;20506;-66
2023/11/11 07:32:06;;;;;;;1.00;0.10;;;6.60;99.90;;;;;;4861982;29;20111;-67
2023/11/11 07:34:33;;;;;;;0.35;0.10;;;6.60;99.90;;;;;;4890238;29;20094;-74
2023/11/11 07:36:59;;;;;;;0.00;0.00;;;6.70;99.90;;;;;;4879712;29;20032;-66
2023/11/11 07:39:24;;;;;;;1.60;0.50;;;6.70;99.90;;;;;;4911394;29;20095;-66
2023/11/11 07:41:50;;;;;;;0.00;0.00;;;6.70;99.90;;;;;;4911245;29;20586;-66
2023/11/11 07:44:16;;;;;;;0.00;0.00;;;6.70;99.90;;;;;;4912527;29;20363;-66
2023/11/11 07:46:43;;;;;;;0.57;0.20;;;6.80;99.90;;;;;;4911496;29;20058;-66
2023/11/11 07:49:12;;;;;;;0.00;0.00;;;6.80;99.90;;;;;;4895503;29;20075;-66
2023/11/11 07:51:40;;;;;;;0.00;0.00;;;6.80;99.90;;;;;;4893076;29;20064;-87
2023/11/11 07:54:07;;;;;;;0.10;0.00;;;6.90;99.90;;;;;;4911996;29;20054;-66
2023/11/11 07:56:34;;;;;;;0.32;0.20;;;7.00;99.90;;;;;;4901731;29;20068;-66
2023/11/11 07:59:00;;;;;;;1.58;0.28;;;6.90;99.90;;;;;;4880941;29;20044;-66
2023/11/11 08:01:27;;;;;;;0.03;0.03;;;7.00;99.90;;;;;;4884678;29;20061;-66
2023/11/11 08:03:53;;;;;;;1.63;0.10;;;7.00;99.90;;;;;;4891872;29;20052;-66
2023/11/11 08:06:19;;;;;;;3.10;0.20;;;7.00;99.90;;;;;;4893255;29;20566;-66
2023/11/11 08:08:45;;;;;;;0.00;0.00;;;7.00;99.90;;;;;;4875716;29;20131;-66
2023/11/11 08:11:12;;;;;;;3.17;0.70;;;7.00;99.90;;;;;;4860333;29;20041;-65
2023/11/11 08:13:38;;;;;;;0.80;0.05;;;7.10;99.90;;;;;;4872769;29;20174;-66
2023/11/11 08:16:04;;;;;;;0.55;0.25;;;7.10;99.90;;;;;;4874983;29;20045;-67
2023/11/11 08:18:30;;;;;;;0.30;0.10;;;7.00;99.90;;;;;;4874152;29;20060;-66
2023/11/11 08:20:56;;;;;;;4.78;0.32;;;7.10;99.90;;;;;;4856759;29;20052;-74
2023/11/11 08:23:21;;;;;;;0.03;0.03;;;7.10;99.90;;;;;;4874247;29;20381;-79
2023/11/11 08:25:47;;;;;;;3.20;0.17;;;7.00;99.90;;;;;;4874404;29;20033;-71
2023/11/11 08:28:14;;;;;;;0.63;0.20;;;7.00;99.90;;;;;;4879723;29;20052;-66
2023/11/11 08:30:40;;;;;;;0.65;0.20;;;7.00;99.90;;;;;;4875936;29;20424;-66
2023/11/11 08:33:08;;;;;;;1.67;0.15;;;7.00;99.90;;;;;;4872059;29;20068;-66
2023/11/11 08:35:34;;;;;;;0.13;0.10;;;7.00;99.90;;;;;;4874264;29;20104;-72
2023/11/11 08:38:00;;;;;;;1.60;0.20;;;7.00;99.90;;;;;;4873324;29;20060;-86
2023/11/11 08:40:27;;;;;;;0.32;0.20;;;6.90;99.90;;;;;;4873096;29;20049;-66
2023/11/11 08:42:53;;;;;;;1.13;0.17;;;7.00;99.90;;;;;;4873162;29;20052;-86
2023/11/11 08:45:19;;;;;;;1.52;0.20;;;7.00;99.90;;;;;;4873473;29;20053;-66
2023/11/11 08:47:45;;;;;;;6.32;0.28;;;7.00;99.90;;;;;;4890756;29;20060;-65
2023/11/11 08:50:11;;;;;;;0.77;0.20;;;7.10;99.90;;;;;;4856274;29;20098;-66
2023/11/11 08:52:41;;;;;;;2.28;0.30;;;7.10;99.90;;;;;;4874365;29;20099;-70
2023/11/11 08:55:08;;;;;;;0.93;0.30;;;7.10;99.90;;;;;;4862074;29;20390;-87
2023/11/11 08:57:33;;;;;;;0.28;0.13;;;7.10;99.90;;;;;;4874796;29;20519;-82
2023/11/11 08:59:59;;;;;;;2.85;0.38;;;7.10;99.90;;;;;;4872405;29;20128;-66
2023/11/11 09:02:25;;;;;;;3.92;0.20;;;7.10;99.90;;;;;;4857145;29;20519;-66
2023/11/11 09:04:52;;;;;;;0.10;0.10;;;7.20;99.90;;;;;;4871841;29;20049;-88
2023/11/11 09:13:52;;;;;;;0.10;0.10;;;7.20;99.90;;;;;;5843986;23;20115;-66
2023/11/11 09:16:18;;;;;;;0.15;0.15;;;7.20;99.90;;;;;;4894439;29;20049;-66
2023/11/11 09:18:46;;;;;;;0.20;0.20;;;7.20;99.90;;;;;;4876893;29;20562;-66
2023/11/11 09:21:11;;;;;;;0.80;0.10;;;7.30;99.90;;;;;;4893632;29;20060;-66
2023/11/11 09:23:37;;;;;;;0.75;0.10;;;7.40;99.90;;;;;;4859941;29;20151;-66
2023/11/11 09:26:05;;;;;;;0.52;0.20;;;7.40;99.90;;;;;;4905277;29;20040;-66
2023/11/11 09:28:32;;;;;;;3.25;0.22;;;7.40;99.90;;;;;;4894055;29;20040;-66
2023/11/11 09:30:58;;;;;;;0.73;0.22;;;7.50;99.90;;;;;;4880994;29;20053;-66
2023/11/11 09:33:24;;;;;;;0.25;0.10;;;7.60;99.90;;;;;;4893692;29;20116;-65
2023/11/11 09:35:50;;;;;;;0.30;0.20;;;7.50;99.90;;;;;;4875256;29;20053;-65
2023/11/11 09:38:16;;;;;;;1.00;0.10;;;7.60;99.90;;;;;;4871539;29;20032;-67
2023/11/11 09:40:42;;;;;;;0.20;0.00;;;7.50;99.90;;;;;;4875598;29;20048;-65
2023/11/11 09:43:09;;;;;;;0.00;0.00;;;7.40;99.90;;;;;;4875761;29;20040;-66
2023/11/11 09:45:35;;;;;;;0.10;0.10;;;7.40;99.90;;;;;;4864932;29;20054;-66
2023/11/11 09:48:02;;;;;;;1.17;0.10;;;7.50;99.90;;;;;;4877918;29;20049;-66
2023/11/11 09:50:28;;;;;;;1.15;0.30;;;7.40;99.90;;;;;;4880228;29;20063;-67
2023/11/11 09:52:57;;;;;;;0.32;0.20;;;7.50;99.90;;;;;;4878497;29;20052;-66
2023/11/11 09:55:23;;;;;;;0.28;0.10;;;7.50;99.90;;;;;;4880234;29;20045;-66
2023/11/11 09:57:49;;;;;;;0.57;0.10;;;7.50;99.90;;;;;;4897653;29;20499;-66
2023/11/11 10:00:16;;;;;;;0.17;0.00;;;7.50;99.90;;;;;;4872607;29;20052;-66
2023/11/11 10:02:42;;;;;;;0.20;0.10;;;7.50;99.90;;;;;;4878436;29;20056;-66
2023/11/11 10:05:11;;;;;;;0.00;0.00;;;7.60;99.90;;;;;;4878296;29;20492;-66
2023/11/11 10:07:40;;;;;;;0.00;0.00;;;7.60;99.90;;;;;;4879349;29;20055;-66
2023/11/11 10:10:12;;;;;;;0.10;0.10;;;7.60;99.90;;;;;;4879345;29;20050;-66
2023/11/11 10:12:39;;;;;;;0.20;0.20;;;7.70;99.90;;;;;;4893704;29;20055;-66
2023/11/11 10:15:08;;;;;;;2.50;0.20;;;7.70;99.90;;;;;;4897986;29;20055;-66
2023/11/11 10:17:41;;;;;;;0.50;0.22;;;7.80;99.90;;;;;;4896767;29;20056;-66
2023/11/11 10:20:10;;;;;;;3.08;0.30;;;7.90;99.90;;;;;;4884503;29;20056;-67
2023/11/11 10:22:41;;;;;;;0.20;0.20;;;8.00;99.90;;;;;;4893843;29;20057;-66
2023/11/11 10:25:10;;;;;;;3.22;0.38;;;8.00;99.90;;;;;;4863709;29;20044;-66
2023/11/11 10:27:36;;;;;;;1.02;0.10;;;8.10;99.90;;;;;;4878098;29;20052;-66
2023/11/11 10:30:03;;;;;;;0.30;0.10;;;8.10;99.90;;;;;;4879577;29;20068;-66
2023/11/11 10:32:29;;;;;;;0.10;0.10;;;8.10;99.90;;;;;;4881614;29;20047;-66
2023/11/11 10:34:57;;;;;;;0.22;0.08;;;8.10;99.90;;;;;;4890495;29;20131;-66
2023/11/11 10:37:23;;;;;;;0.30;0.10;;;8.10;99.90;;;;;;4863795;29;20060;-66
2023/11/11 10:39:49;;;;;;;0.30;0.08;;;8.10;99.90;;;;;;4894015;29;20056;-66
2023/11/11 10:42:17;;;;;;;3.03;0.10;;;8.00;99.90;;;;;;4902630;29;20045;-66
2023/11/11 10:44:43;;;;;;;0.10;0.10;;;8.00;99.90;;;;;;4876438;29;20145;-66
2023/11/11 10:47:11;;;;;;;0.50;0.10;;;7.90;99.90;;;;;;4878569;29;20056;-66
2023/11/11 10:49:38;;;;;;;0.52;0.10;;;8.00;99.90;;;;;;4877751;29;20048;-66
2023/11/11 10:52:06;;;;;;;0.10;0.03;;;7.90;99.90;;;;;;4878592;29;20519;-66
2023/11/11 10:54:35;;;;;;;0.03;0.03;;;7.90;99.90;;;;;;4865709;29;20399;-67
2023/11/11 10:57:01;;;;;;;0.68;0.30;;;7.90;99.90;;;;;;4876039;29;20128;-66
2023/11/11 10:59:30;;;;;;;2.72;0.10;;;7.80;99.90;;;;;;4866574;29;20049;-67
2023/11/11 11:01:56;;;;;;;0.20;0.20;;;7.80;99.90;;;;;;4879817;29;20056;-66
2023/11/11 11:04:26;;;;;;;1.38;0.38;;;7.70;99.90;;;;;;4878686;29;20048;-67
2023/11/11 11:06:59;;;;;;;0.10;0.10;;;7.70;99.90;;;;;;4878160;29;20052;-66
2023/11/11 11:09:24;;;;;;;1.35;0.10;;;7.70;99.90;;;;;;4876292;29;20187;-67
2023/11/11 11:12:07;;;;;;;2.75;0.20;;;7.60;99.90;;;;;;4903372;29;20075;-66
2023/11/11 11:14:51;;;;;;;0.30;0.10;;;7.60;99.90;;;;;;4899049;29;20470;-66
2023/11/11 11:17:34;;;;;;;0.15;0.08;;;7.60;99.90;;;;;;4881714;29;20068;-66
2023/11/11 11:20:04;;;;;;;0.30;0.20;;;7.50;99.90;;;;;;4889513;29;20056;-66
2023/11/11 11:22:34;;;;;;;0.88;0.30;;;7.60;99.90;;;;;;4901089;29;20059;-66
2023/11/11 11:25:33;;;;;;;0.98;0.30;;;7.60;99.90;;;;;;4894797;29;20348;-66
2023/11/11 11:28:11;;;;;;;0.00;0.00;;;7.60;99.90;;;;;;4895135;29;20506;-66
2023/11/11 11:30:46;;;;;;;0.75;0.30;;;7.60;99.90;;;;;;4895544;29;20407;-66
2023/11/11 11:33:16;;;;;;;0.10;0.10;;;7.60;99.90;;;;;;4886428;29;20052;-66
2023/11/11 11:35:53;;;;;;;0.30;0.10;;;7.60;99.90;;;;;;4886825;29;20056;-66
2023/11/11 11:38:27;;;;;;;0.63;0.30;;;7.70;99.90;;;;;;4896250;29;20558;-66
2023/11/11 11:40:58;;;;;;;2.17;0.35;;;7.80;99.90;;;;;;4895181;29;20569;-66
2023/11/11 11:43:29;;;;;;;0.10;0.10;;;7.80;99.90;;;;;;4895566;29;20047;-67
2023/11/11 12:04:04;;;;;;;0.70;0.25;;;7.90;99.90;;;;;;5427587;23;20055;-67
2023/11/11 12:06:31;;;;;;;0.10;0.10;;;7.90;99.90;;;;;;4895248;29;20056;-67
2023/11/11 12:08:59;;;;;;;0.28;0.20;;;7.90;99.90;;;;;;4885659;29;20050;-68
2023/11/11 12:11:30;;;;;;;0.25;0.25;;;7.90;99.90;;;;;;4895400;29;20052;-67
2023/11/11 12:13:57;;;;;;;1.45;0.50;;;7.90;99.90;;;;;;4896657;29;20098;-67
2023/11/11 12:16:44;;;;;;;0.57;0.32;;;7.80;99.90;;;;;;4896136;29;20060;-67
2023/11/11 12:19:13;;;;;;;0.93;0.38;;;7.90;99.90;;;;;;4896001;29;20139;-67
2023/11/11 12:21:42;;;;;;;2.67;0.43;;;7.90;99.90;;;;;;4896322;29;20131;-67
2023/11/11 12:24:14;;;;;;;5.00;0.22;;;7.80;99.90;;;;;;4895369;29;20506;-67
2023/11/11 12:26:41;;;;;;;4.97;0.40;;;7.90;99.90;;;;;;4881542;29;20056;-67
2023/11/11 12:29:07;;;;;;;0.80;0.10;;;7.90;99.90;;;;;;4895536;29;20048;-66
2023/11/11 12:31:56;;;;;;;1.88;0.32;;;7.90;99.90;;;;;;4893757;29;20055;-67
2023/11/11 12:34:29;;;;;;;2.17;0.32;;;7.90;99.90;;;;;;4875217;29;20044;-67
2023/11/11 12:42:05;;;;;;;1.00;0.30;;;7.90;99.90;;;;;;5204886;23;20056;-67
2023/11/11 12:44:39;;;;;;;1.17;0.20;;;7.80;99.90;;;;;;4872787;29;20063;-67
2023/11/11 12:47:12;;;;;;;0.17;0.17;;;7.90;99.90;;;;;;4895305;29;20067;-67
2023/11/11 12:49:49;;;;;;;0.20;0.20;;;7.80;99.90;;;;;;4913156;29;20111;-67
2023/11/11 12:52:15;;;;;;;1.10;0.30;;;7.80;99.90;;;;;;4894539;29;20064;-67
2023/11/11 12:54:41;;;;;;;3.10;0.22;;;7.90;99.90;;;;;;4878236;29;20565;-68
2023/11/11 12:57:07;;;;;;;4.20;1.95;;;7.90;99.90;;;;;;4891440;29;20059;-67
2023/11/11 12:59:33;;;;;;;1.05;0.20;;;7.90;99.90;;;;;;4893754;29;20056;-67
2023/11/11 13:02:08;;;;;;;0.52;0.22;;;7.90;99.90;;;;;;4890683;29;20094;-67
2023/11/11 13:04:34;;;;;;;1.20;0.22;;;7.80;99.90;;;;;;4887962;29;20424;-68
2023/11/11 13:07:01;;;;;;;0.20;0.20;;;7.80;99.90;;;;;;4884529;29;20065;-67
2023/11/11 13:09:41;;;;;;;1.27;0.40;;;7.80;99.90;;;;;;4892119;29;20420;-66
2023/11/11 13:12:07;;;;;;;;;;;7.80;99.90;;;;;;4895008;29;20111;-67
2023/11/11 13:14:34;;;;;;;2.97;0.20;;;7.80;99.90;;;;;;4888000;29;20364;-67
2023/11/11 13:17:04;;;;;;;0.43;0.30;;;7.80;99.90;;;;;;4870877;29;20052;-66
2023/11/11 13:19:34;;;;;;;;;;;7.70;99.90;;;;;;4892298;29;20044;-66
2023/11/11 13:22:04;;;;;;;4.47;0.63;;;7.80;99.90;;;;;;4910964;29;19923;-67
2023/11/11 13:24:31;;;;;;;0.95;0.40;;;7.80;99.90;;;;;;4891022;29;20474;-66
2023/11/11 13:26:59;;;;;;;1.23;0.30;;;7.80;99.90;;;;;;4890799;29;20054;-67
2023/11/11 13:29:26;;;;;;;0.63;0.20;;;7.80;99.90;;;;;;4893494;29;20119;-66
2023/11/11 13:31:55;;;;;;;3.90;0.70;;;7.70;99.90;;;;;;4886738;29;20048;-66
2023/11/11 13:34:21;;;;;;;1.25;0.40;;;7.80;99.90;;;;;;4876741;29;20479;-67
2023/11/11 13:36:47;;;;;;;3.45;0.38;;;7.70;99.90;;;;;;4886287;29;20084;-67
2023/11/11 13:44:38;;;;;;;1.30;0.23;;;7.70;99.90;;;;;;4859845;29;20504;-67
2023/11/11 13:47:03;;;;;;;1.48;0.30;;;7.70;99.90;;;;;;4879340;29;20128;-67
2023/11/11 13:49:31;;;;;;;0.47;0.10;;;7.60;99.90;;;;;;4868762;29;20139;-67
2023/11/11 13:51:56;;;;;;;3.92;0.73;;;7.70;99.90;;;;;;4873901;29;20048;-67
2023/11/11 13:54:22;;;;;;;1.45;0.20;;;7.70;99.90;;;;;;4876597;29;20045;-67
2023/11/11 13:56:48;;;;;;;3.80;0.73;;;7.70;99.90;;;;;;4877084;29;20480;-66
2023/11/11 13:59:13;;;;;;;3.13;1.75;;;7.80;99.90;;;;;;4875484;29;20088;-66
2023/11/11 14:01:41;;;;;;;4.25;0.95;;;7.70;99.90;;;;;;4877794;29;20180;-68
2023/11/11 14:04:07;;;;;;;6.50;0.63;;;7.70;99.90;;;;;;4845437;29;20044;-66
2023/11/11 14:06:33;;;;;;;4.38;0.70;;;7.80;99.90;;;;;;4877982;29;20053;-66
2023/11/11 14:08:59;;;;;;;5.95;0.60;;;7.80;99.90;;;;;;4878748;29;20101;-67